Time;durP1;ratioP1;P1;durP2;ratioP2;P2;SDS_P1;SDS_P2;PMS_P1;PMS_P2;Temp;Humidity;BMP_temperature;BMP_pressure;BME280_temperature;BME280_humidity;BME280_pressure;Samples;Min_cycle;Max_cycle;Signal;HPM_P1;HPM_P2
2022/12/04 00:01:50;;;;;;;88.47;45.57;;;0.80;1.00;;;;;;6207135;28;20319;-52
2022/12/04 00:04:54;;;;;;;87.23;43.37;;;0.70;1.00;;;;;;6206250;28;20725;-51
2022/12/04 00:07:57;;;;;;;86.90;43.87;;;0.90;1.00;;;;;;6210854;28;20766;-51
2022/12/04 00:11:01;;;;;;;87.80;45.27;;;1.00;1.00;;;;;;6207308;28;20243;-51
2022/12/04 00:14:04;;;;;;;83.93;43.30;;;1.00;1.00;;;;;;6208414;28;20742;-51
2022/12/04 00:17:09;;;;;;;85.87;44.77;;;0.90;1.00;;;;;;6205970;28;20235;-52
2022/12/04 00:20:14;;;;;;;83.60;43.77;;;0.90;1.00;;;;;;6201435;28;20231;-51
2022/12/04 00:23:17;;;;;;;87.10;42.30;;;0.80;1.00;;;;;;6207852;28;20285;-51
2022/12/04 00:26:23;;;;;;;88.80;45.10;;;1.00;1.00;;;;;;6199998;28;20247;-50
2022/12/04 00:29:26;;;;;;;84.53;44.03;;;1.00;1.00;;;;;;6209885;28;20231;-52
2022/12/04 00:32:30;;;;;;;86.00;44.20;;;1.20;1.00;;;;;;6199327;28;20647;-51
2022/12/04 00:35:34;;;;;;;87.93;44.90;;;1.00;1.00;;;;;;6210168;28;20249;-52
2022/12/04 00:38:38;;;;;;;92.30;44.70;;;1.20;1.00;;;;;;6210796;28;20737;-52
2022/12/04 00:41:41;;;;;;;89.80;46.10;;;1.10;1.00;;;;;;6214251;28;20710;-51
2022/12/04 00:44:45;;;;;;;95.20;46.80;;;1.10;1.00;;;;;;6206257;28;20231;-51
2022/12/04 00:47:47;;;;;;;92.07;47.93;;;0.90;1.00;;;;;;6211137;28;20261;-51
2022/12/04 00:50:53;;;;;;;94.93;45.27;;;1.10;1.00;;;;;;6201049;28;20729;-52
2022/12/04 00:53:56;;;;;;;94.90;47.00;;;1.00;1.00;;;;;;6207467;28;20635;-51
2022/12/04 00:56:58;;;;;;;88.53;45.03;;;0.90;1.00;;;;;;6209539;28;20254;-51
2022/12/04 01:00:02;;;;;;;94.50;46.60;;;0.90;1.00;;;;;;6208008;28;20235;-52
2022/12/04 01:03:06;;;;;;;100.93;47.07;;;0.80;1.00;;;;;;6205416;28;20777;-52
2022/12/04 01:06:20;;;;;;;89.73;44.47;;;1.00;1.00;;;;;;6211559;28;20239;-52
2022/12/04 01:09:23;;;;;;;95.37;45.90;;;1.10;1.00;;;;;;6209360;28;20635;-51
2022/12/04 01:12:26;;;;;;;99.40;45.77;;;1.10;1.00;;;;;;6214117;28;20231;-52
2022/12/04 01:15:29;;;;;;;97.80;46.83;;;0.90;1.00;;;;;;6197189;28;20236;-51
2022/12/04 01:18:32;;;;;;;85.27;44.73;;;0.90;1.00;;;;;;6210729;28;20250;-53
2022/12/04 01:21:37;;;;;;;90.07;44.47;;;1.00;1.00;;;;;;6209203;28;20239;-51
2022/12/04 01:24:40;;;;;;;98.53;47.70;;;1.00;1.00;;;;;;6206492;28;20235;-52
2022/12/04 01:27:43;;;;;;;93.73;46.63;;;1.10;1.00;;;;;;6207770;28;20247;-51
2022/12/04 01:30:58;;;;;;;97.17;48.67;;;1.00;1.00;;;;;;6209985;28;20723;-53
2022/12/04 01:34:01;;;;;;;101.00;47.17;;;1.00;1.00;;;;;;6203303;28;20239;-52
2022/12/04 01:37:05;;;;;;;92.70;44.80;;;1.00;1.00;;;;;;6229746;28;20905;-50
2022/12/04 01:40:13;;;;;;;93.97;45.67;;;1.00;1.00;;;;;;6229013;28;20239;-52
2022/12/04 01:43:17;;;;;;;98.63;46.03;;;1.00;1.00;;;;;;6235555;28;20261;-51
2022/12/04 01:46:20;;;;;;;87.67;45.30;;;1.00;1.00;;;;;;6235610;28;20238;-52
2022/12/04 01:49:26;;;;;;;109.40;48.70;;;1.00;1.00;;;;;;6231262;28;20748;-52
2022/12/04 01:52:30;;;;;;;109.23;50.27;;;0.90;1.00;;;;;;6225145;28;20640;-52
2022/12/04 01:55:33;;;;;;;108.83;50.70;;;1.20;1.00;;;;;;6232433;28;20234;-52
2022/12/04 01:58:40;;;;;;;105.03;48.07;;;1.20;1.00;;;;;;6232430;28;20382;-53
2022/12/04 02:01:50;;;;;;;101.43;46.73;;;0.90;1.00;;;;;;6235786;28;20745;-54
2022/12/04 02:04:54;;;;;;;97.27;49.23;;;0.90;1.00;;;;;;6226878;28;20241;-51
2022/12/04 02:08:04;;;;;;;101.63;49.27;;;0.90;1.00;;;;;;6233705;28;20243;-50
2022/12/04 02:11:18;;;;;;;99.07;47.40;;;1.00;1.00;;;;;;6242376;28;20226;-51
2022/12/04 02:14:30;;;;;;;109.37;50.17;;;0.90;1.00;;;;;;6234941;28;20763;-53
2022/12/04 02:17:39;;;;;;;108.53;49.37;;;0.70;1.00;;;;;;6230173;28;20242;-50
2022/12/04 02:20:48;;;;;;;100.83;47.90;;;0.90;1.00;;;;;;6237176;28;20459;-52
2022/12/04 02:24:20;;;;;;;107.73;48.53;;;1.10;1.00;;;;;;6212479;28;20714;-51
2022/12/04 02:27:42;;;;;;;104.30;48.97;;;1.00;1.00;;;;;;6242254;28;20235;-51
2022/12/04 02:30:45;;;;;;;112.70;48.40;;;0.90;1.00;;;;;;6221695;28;20720;-58
2022/12/04 02:33:54;;;;;;;97.67;49.67;;;0.90;1.00;;;;;;6209698;28;20246;-52
2022/12/04 02:37:02;;;;;;;109.83;49.40;;;0.90;1.00;;;;;;6212720;28;20729;-51
2022/12/04 02:40:09;;;;;;;109.13;48.97;;;0.90;1.00;;;;;;6214726;28;20618;-51
2022/12/04 02:43:18;;;;;;;103.37;50.80;;;1.10;1.00;;;;;;6215549;28;20239;-53
2022/12/04 02:46:24;;;;;;;111.73;50.13;;;1.00;1.00;;;;;;6212725;28;20242;-51
2022/12/04 02:49:33;;;;;;;103.07;48.50;;;1.00;1.00;;;;;;6245534;28;20249;-52
2022/12/04 02:52:40;;;;;;;99.93;48.17;;;1.00;1.00;;;;;;6225957;28;20359;-52
2022/12/04 02:55:46;;;;;;;101.63;50.20;;;1.10;1.00;;;;;;6239119;28;20596;-53
2022/12/04 02:58:55;;;;;;;117.90;50.70;;;1.00;1.00;;;;;;6238526;28;20477;-52
2022/12/04 03:02:06;;;;;;;118.93;50.27;;;1.10;1.00;;;;;;6237913;28;20242;-51
2022/12/04 03:05:13;;;;;;;105.83;49.53;;;0.90;1.00;;;;;;6235752;28;20250;-51
2022/12/04 03:08:22;;;;;;;111.60;51.13;;;0.80;1.00;;;;;;6233285;28;20245;-52
2022/12/04 03:11:28;;;;;;;97.67;50.90;;;1.10;1.00;;;;;;6234270;28;20237;-51
2022/12/04 03:14:36;;;;;;;109.63;50.90;;;0.80;1.00;;;;;;6211265;28;20254;-59
2022/12/04 03:17:46;;;;;;;104.10;49.87;;;1.00;1.00;;;;;;6213293;28;20254;-53
2022/12/04 03:20:53;;;;;;;102.13;48.60;;;1.00;1.00;;;;;;6228409;28;20254;-52
2022/12/04 03:24:01;;;;;;;105.90;50.03;;;1.10;1.00;;;;;;6233179;28;20245;-52
2022/12/04 03:27:11;;;;;;;109.07;49.80;;;1.00;1.00;;;;;;6231965;28;20243;-53
2022/12/04 03:30:19;;;;;;;109.87;49.33;;;0.80;1.00;;;;;;6227600;28;20462;-51
2022/12/04 03:33:29;;;;;;;102.63;48.10;;;1.20;1.00;;;;;;6247104;28;20226;-51
2022/12/04 03:36:36;;;;;;;114.23;50.67;;;1.10;1.00;;;;;;6189008;28;20623;-51
2022/12/04 03:39:46;;;;;;;100.67;48.53;;;1.10;1.00;;;;;;6212091;28;20701;-52
2022/12/04 03:42:56;;;;;;;103.57;49.30;;;0.90;1.00;;;;;;6214347;28;20631;-52
2022/12/04 03:46:09;;;;;;;102.60;48.73;;;0.90;1.00;;;;;;6207573;28;20638;-52
2022/12/04 03:49:18;;;;;;;102.43;47.37;;;1.10;1.00;;;;;;6218634;28;20236;-52
2022/12/04 03:52:24;;;;;;;103.47;48.50;;;1.10;1.00;;;;;;6207609;28;20587;-52
2022/12/04 03:55:32;;;;;;;101.10;48.60;;;1.10;1.00;;;;;;6206822;28;20490;-53
2022/12/04 03:58:38;;;;;;;97.60;46.47;;;1.10;1.00;;;;;;6199341;28;20668;-52
2022/12/04 04:01:47;;;;;;;104.77;46.67;;;1.20;1.00;;;;;;6235635;28;20741;-52
2022/12/04 04:04:55;;;;;;;97.10;47.67;;;1.00;1.00;;;;;;6231523;28;20233;-52
2022/12/04 04:11:27;;;;;;;103.97;48.13;;;1.10;1.00;;;;;;6236782;28;20751;-53
2022/12/04 04:25:05;;;;;;;93.77;45.00;;;1.30;1.00;;;;;;6136055;28;20238;-51
2022/12/04 04:28:34;;;;;;;92.40;46.87;;;1.30;1.00;;;;;;6120832;28;20245;-50
2022/12/04 04:31:42;;;;;;;93.83;46.50;;;1.20;1.00;;;;;;6205972;28;20239;-50
2022/12/04 04:34:54;;;;;;;90.53;45.97;;;1.20;1.00;;;;;;6208174;28;20247;-52
2022/12/04 04:38:06;;;;;;;93.53;44.97;;;1.40;1.00;;;;;;6201550;28;20860;-51
2022/12/04 04:41:15;;;;;;;97.53;47.37;;;1.20;1.00;;;;;;6230719;28;20239;-51
2022/12/04 04:44:26;;;;;;;94.03;46.47;;;1.20;1.00;;;;;;6224857;28;20241;-51
2022/12/04 04:47:36;;;;;;;86.60;45.00;;;1.30;1.00;;;;;;6226480;28;20313;-52
2022/12/04 04:50:41;;;;;;;101.93;47.67;;;1.30;1.00;;;;;;6229092;28;20238;-51
2022/12/04 04:53:47;;;;;;;92.00;46.10;;;1.20;1.00;;;;;;6232660;28;20402;-56
2022/12/04 04:56:50;;;;;;;92.40;46.03;;;1.40;1.00;;;;;;6198983;28;20236;-51
2022/12/04 04:59:53;;;;;;;93.17;43.70;;;1.20;1.00;;;;;;6203843;28;20394;-46
2022/12/04 05:02:57;;;;;;;86.90;45.93;;;1.30;1.00;;;;;;6202033;28;20242;-50
2022/12/04 05:06:01;;;;;;;93.17;46.47;;;1.20;1.00;;;;;;6207348;28;20243;-52
2022/12/04 05:09:05;;;;;;;89.50;43.77;;;1.10;1.00;;;;;;6210259;28;20239;-52
2022/12/04 05:12:08;;;;;;;93.50;45.93;;;1.30;1.00;;;;;;6215016;28;20265;-52
2022/12/04 05:15:12;;;;;;;97.87;47.03;;;1.30;1.00;;;;;;6211489;28;20239;-51
2022/12/04 05:18:15;;;;;;;93.63;46.50;;;1.30;1.00;;;;;;6214662;28;20809;-51
2022/12/04 05:21:19;;;;;;;93.13;45.50;;;1.20;1.00;;;;;;6205887;28;20231;-51
2022/12/04 05:24:22;;;;;;;91.33;45.33;;;1.20;1.00;;;;;;6208578;28;20604;-52
2022/12/04 05:27:27;;;;;;;86.20;45.00;;;1.40;1.00;;;;;;6203855;28;20239;-52
2022/12/04 05:30:30;;;;;;;85.60;44.20;;;1.30;1.00;;;;;;6205907;28;20386;-52
2022/12/04 05:33:33;;;;;;;93.00;44.93;;;1.10;1.00;;;;;;6211460;28;20246;-52
2022/12/04 05:36:37;;;;;;;96.33;45.97;;;1.40;1.00;;;;;;6215838;28;20266;-51
2022/12/04 05:39:40;;;;;;;92.63;46.23;;;1.40;1.00;;;;;;6220259;28;20733;-54
2022/12/04 05:42:43;;;;;;;91.67;45.93;;;1.20;1.00;;;;;;6215731;28;20247;-55
2022/12/04 05:45:46;;;;;;;96.10;46.37;;;1.30;1.00;;;;;;6218021;28;20635;-52
2022/12/04 05:48:49;;;;;;;90.20;43.87;;;1.30;1.00;;;;;;6215403;28;20317;-52
2022/12/04 05:51:53;;;;;;;91.77;45.37;;;1.20;1.00;;;;;;6217934;28;20727;-51
2022/12/04 05:54:56;;;;;;;89.07;45.93;;;1.30;1.00;;;;;;6217536;28;20239;-53
2022/12/04 05:57:59;;;;;;;89.73;45.27;;;1.30;1.00;;;;;;6214356;28;20258;-51
2022/12/04 06:01:09;;;;;;;84.77;43.10;;;1.40;1.00;;;;;;6214753;28;20238;-53
2022/12/04 06:04:12;;;;;;;93.73;44.83;;;1.30;1.00;;;;;;6229962;28;20237;-52
2022/12/04 06:07:16;;;;;;;88.20;44.73;;;1.40;1.00;;;;;;6232861;28;20246;-51
2022/12/04 06:10:19;;;;;;;89.93;46.30;;;1.30;1.00;;;;;;6246338;28;20775;-53
2022/12/04 06:13:22;;;;;;;84.23;43.37;;;1.40;1.00;;;;;;6229281;28;20230;-52
2022/12/04 06:16:28;;;;;;;94.00;44.60;;;1.10;1.00;;;;;;6242569;28;20234;-52
2022/12/04 06:19:31;;;;;;;93.10;45.13;;;1.20;1.00;;;;;;6240837;28;20314;-59
2022/12/04 06:22:35;;;;;;;93.17;44.70;;;1.30;1.00;;;;;;6237054;28;20234;-54
2022/12/04 06:25:38;;;;;;;90.57;44.20;;;1.40;1.00;;;;;;6240484;28;20829;-51
2022/12/04 06:28:41;;;;;;;90.53;45.47;;;1.20;1.00;;;;;;6240123;28;20246;-53
2022/12/04 06:31:44;;;;;;;91.50;47.53;;;1.30;1.00;;;;;;6236163;28;20788;-57
2022/12/04 06:34:51;;;;;;;89.53;43.70;;;1.30;1.00;;;;;;6248614;28;20241;-56
2022/12/04 06:37:55;;;;;;;94.70;45.33;;;1.20;1.00;;;;;;6243676;28;20234;-53
2022/12/04 06:40:58;;;;;;;91.60;45.67;;;1.30;1.00;;;;;;6250104;28;20238;-52
2022/12/04 06:44:01;;;;;;;91.90;44.37;;;1.40;1.00;;;;;;6234274;28;20234;-53
2022/12/04 06:47:05;;;;;;;95.83;44.97;;;1.50;1.00;;;;;;6249362;28;20239;-53
2022/12/04 06:50:08;;;;;;;95.20;46.23;;;1.60;1.00;;;;;;6232558;28;20493;-54
2022/12/04 06:53:13;;;;;;;93.47;46.07;;;1.30;1.00;;;;;;6225698;28;20252;-46
2022/12/04 06:56:18;;;;;;;96.73;46.03;;;1.30;1.00;;;;;;6243040;28;20235;-51
2022/12/04 06:59:21;;;;;;;89.57;44.47;;;1.50;1.00;;;;;;6246373;28;20246;-51
2022/12/04 07:02:24;;;;;;;91.87;45.10;;;1.30;1.00;;;;;;6240807;28;20751;-52
2022/12/04 07:05:27;;;;;;;88.33;44.87;;;1.50;1.00;;;;;;6244156;28;20234;-52
2022/12/04 07:08:32;;;;;;;92.90;43.37;;;1.50;1.00;;;;;;6244099;28;20249;-52
2022/12/04 07:11:35;;;;;;;92.47;46.03;;;1.30;1.00;;;;;;6242603;28;20257;-52
2022/12/04 07:14:38;;;;;;;98.40;44.73;;;1.50;1.00;;;;;;6237760;28;20738;-51
2022/12/04 07:17:41;;;;;;;91.43;44.23;;;1.40;1.00;;;;;;6242380;28;20240;-52
2022/12/04 07:20:44;;;;;;;87.57;43.83;;;1.50;1.00;;;;;;6241455;28;20219;-52
2022/12/04 07:23:52;;;;;;;97.80;45.43;;;1.50;1.00;;;;;;6244112;28;20231;-51
2022/12/04 07:26:55;;;;;;;86.50;44.23;;;1.50;1.00;;;;;;6229270;28;20254;-52
2022/12/04 07:29:58;;;;;;;100.63;46.00;;;1.50;1.00;;;;;;6233742;28;20235;-52
2022/12/04 07:33:01;;;;;;;92.03;45.43;;;1.50;1.00;;;;;;6236753;28;20393;-52
2022/12/04 07:36:06;;;;;;;84.83;43.43;;;1.50;1.00;;;;;;6231329;28;20723;-54
2022/12/04 07:39:10;;;;;;;87.30;44.53;;;1.40;1.00;;;;;;6246671;28;20245;-51
2022/12/04 07:42:13;;;;;;;87.17;45.67;;;1.40;1.00;;;;;;6239694;28;20222;-52
2022/12/04 07:45:21;;;;;;;89.67;45.17;;;1.50;1.00;;;;;;6211760;28;20235;-58
2022/12/04 07:48:24;;;;;;;93.80;44.93;;;1.60;1.00;;;;;;6222129;28;20297;-52
2022/12/04 07:51:35;;;;;;;83.83;43.20;;;1.60;1.00;;;;;;6217440;28;20241;-54
2022/12/04 07:54:39;;;;;;;91.90;45.63;;;1.70;1.00;;;;;;6208899;28;20235;-51
2022/12/04 07:57:42;;;;;;;91.30;44.67;;;1.70;1.00;;;;;;6212986;28;20242;-52
2022/12/04 08:00:45;;;;;;;90.27;42.50;;;1.60;1.00;;;;;;6210779;28;20231;-52
2022/12/04 08:03:50;;;;;;;89.17;45.60;;;1.60;1.00;;;;;;6214656;28;20227;-52
2022/12/04 08:06:53;;;;;;;93.47;44.23;;;1.60;1.00;;;;;;6201825;28;20266;-53
2022/12/04 08:09:57;;;;;;;84.27;44.00;;;1.90;1.00;;;;;;6218193;28;20239;-53
2022/12/04 08:13:00;;;;;;;84.17;42.87;;;1.70;1.00;;;;;;6216428;28;20259;-53
2022/12/04 08:16:04;;;;;;;88.23;43.53;;;1.70;1.00;;;;;;6204631;28;20354;-53
2022/12/04 08:19:06;;;;;;;89.90;43.60;;;1.70;1.00;;;;;;6209085;28;20303;-52
2022/12/04 08:22:09;;;;;;;88.23;42.43;;;1.60;1.00;;;;;;6204880;28;20239;-53
2022/12/04 08:25:14;;;;;;;87.00;43.30;;;1.80;1.00;;;;;;6230350;28;20238;-51
2022/12/04 08:28:17;;;;;;;90.00;43.30;;;1.70;1.00;;;;;;6232010;28;20514;-54
2022/12/04 08:31:22;;;;;;;86.40;41.67;;;1.70;1.00;;;;;;6245000;28;20445;-53
2022/12/04 08:34:25;;;;;;;81.27;42.17;;;2.00;1.00;;;;;;6228294;28;20629;-52
2022/12/04 08:37:28;;;;;;;86.60;43.20;;;1.60;1.00;;;;;;6228580;28;20238;-50
2022/12/04 08:40:32;;;;;;;87.27;43.27;;;1.80;1.00;;;;;;6242904;28;20238;-52
2022/12/04 08:43:35;;;;;;;88.63;43.87;;;1.80;1.00;;;;;;6220892;28;20742;-53
2022/12/04 08:46:39;;;;;;;80.30;41.47;;;1.70;1.00;;;;;;6201712;28;20450;-52
2022/12/04 08:49:42;;;;;;;96.23;43.03;;;1.80;1.00;;;;;;6211206;28;20242;-53
2022/12/04 08:52:45;;;;;;;83.33;41.37;;;2.10;1.00;;;;;;6203591;28;20399;-52
2022/12/04 08:55:50;;;;;;;82.23;41.37;;;1.70;1.00;;;;;;6210625;28;20258;-54
2022/12/04 08:58:53;;;;;;;89.83;42.60;;;1.70;1.00;;;;;;6207572;28;20235;-52
2022/12/04 09:01:56;;;;;;;90.63;44.20;;;2.00;1.00;;;;;;6207952;28;20234;-52
2022/12/04 09:04:59;;;;;;;81.73;41.13;;;1.90;1.00;;;;;;6209728;28;20325;-58
2022/12/04 09:08:02;;;;;;;81.30;40.47;;;1.90;1.00;;;;;;6211459;28;20239;-51
2022/12/04 09:11:08;;;;;;;82.67;41.80;;;2.10;1.00;;;;;;6219819;28;20246;-52
2022/12/04 09:14:11;;;;;;;79.73;41.93;;;2.10;1.00;;;;;;6213472;28;20311;-52
2022/12/04 09:17:14;;;;;;;83.57;42.73;;;1.90;1.00;;;;;;6234255;28;20250;-53
2022/12/04 09:20:17;;;;;;;76.20;40.30;;;1.90;1.00;;;;;;6248002;28;20238;-52
2022/12/04 09:23:20;;;;;;;80.83;42.13;;;2.00;1.00;;;;;;6244937;28;20771;-53
2022/12/04 09:26:27;;;;;;;88.60;42.30;;;1.90;1.00;;;;;;6237259;28;20239;-52
2022/12/04 09:29:30;;;;;;;73.83;40.70;;;1.90;1.00;;;;;;6225861;28;20598;-53
2022/12/04 09:32:33;;;;;;;79.00;39.80;;;2.20;1.00;;;;;;6217176;28;20235;-51
2022/12/04 09:35:35;;;;;;;79.50;40.83;;;2.10;1.00;;;;;;6214349;28;20239;-52
2022/12/04 09:38:38;;;;;;;78.97;40.13;;;2.10;1.00;;;;;;6206615;28;20243;-55
2022/12/04 09:42:08;;;;;;;81.83;41.70;;;1.90;1.00;;;;;;6215010;28;20263;-52
2022/12/04 09:45:15;;;;;;;80.20;40.43;;;2.00;1.00;;;;;;6205330;28;20293;-55
2022/12/04 09:48:20;;;;;;;73.93;39.37;;;2.00;1.00;;;;;;6204512;28;20239;-57
2022/12/04 09:51:25;;;;;;;73.53;38.57;;;2.10;1.00;;;;;;6208421;28;20235;-52
2022/12/04 09:54:31;;;;;;;79.73;38.47;;;2.20;1.00;;;;;;6210963;28;20258;-53
2022/12/04 09:57:43;;;;;;;71.60;40.00;;;2.30;1.00;;;;;;6210798;28;20624;-52
2022/12/04 10:00:49;;;;;;;75.43;40.20;;;1.90;1.00;;;;;;6213816;28;20465;-54
2022/12/04 10:03:54;;;;;;;73.30;38.77;;;2.20;1.00;;;;;;6214883;28;20235;-53
2022/12/04 10:07:12;;;;;;;82.80;39.27;;;2.40;1.00;;;;;;6219980;28;20729;-52
2022/12/04 10:10:23;;;;;;;80.30;41.40;;;2.20;1.00;;;;;;6214682;28;20227;-52
2022/12/04 10:13:52;;;;;;;81.80;40.90;;;2.40;1.00;;;;;;6214878;28;20246;-53
2022/12/04 10:17:31;;;;;;;69.80;37.60;;;2.20;1.00;;;;;;6213977;28;20569;-52
2022/12/04 10:20:50;;;;;;;73.73;37.87;;;2.30;1.00;;;;;;6217686;28;20235;-53
2022/12/04 10:24:04;;;;;;;66.33;38.13;;;2.50;1.00;;;;;;6219110;28;20236;-52
2022/12/04 10:27:14;;;;;;;78.73;39.50;;;2.20;1.00;;;;;;6215686;28;20240;-52
2022/12/04 10:30:22;;;;;;;69.40;36.57;;;2.10;1.00;;;;;;6214467;28;20235;-51
2022/12/04 10:33:35;;;;;;;77.20;38.73;;;2.20;1.00;;;;;;6203646;28;20631;-52
2022/12/04 10:36:41;;;;;;;67.87;36.90;;;2.40;1.00;;;;;;6210670;28;20721;-59
2022/12/04 10:39:51;;;;;;;74.47;39.23;;;2.40;1.00;;;;;;6213081;28;20235;-52
2022/12/04 10:43:00;;;;;;;66.20;37.50;;;2.40;1.00;;;;;;6219912;28;20236;-53
2022/12/04 10:46:07;;;;;;;69.40;36.30;;;2.20;1.00;;;;;;6213939;28;20246;-52
2022/12/04 10:49:17;;;;;;;74.90;39.10;;;2.20;1.00;;;;;;6213337;28;20323;-53
2022/12/04 10:52:20;;;;;;;69.50;36.10;;;2.40;1.00;;;;;;6201752;28;20305;-53
2022/12/04 10:55:31;;;;;;;76.03;39.13;;;2.70;1.00;;;;;;6224611;28;20236;-52
2022/12/04 10:58:34;;;;;;;69.70;37.57;;;2.50;1.00;;;;;;6233595;28;20714;-54
2022/12/04 11:01:38;;;;;;;73.80;38.10;;;2.50;1.00;;;;;;6228284;28;20235;-52
2022/12/04 11:04:42;;;;;;;66.57;36.40;;;2.30;1.00;;;;;;6237644;28;20226;-51
2022/12/04 11:07:47;;;;;;;72.10;38.03;;;2.30;1.00;;;;;;6237212;28;20242;-53
2022/12/04 11:10:57;;;;;;;74.17;38.50;;;2.60;1.00;;;;;;6243734;28;20536;-52
2022/12/04 11:14:05;;;;;;;69.07;37.57;;;2.70;1.00;;;;;;6233188;28;20257;-53
2022/12/04 11:17:17;;;;;;;68.00;37.67;;;2.40;1.00;;;;;;6228991;28;20239;-53
2022/12/04 11:20:21;;;;;;;69.40;37.70;;;2.50;1.00;;;;;;6235509;28;20235;-53
2022/12/04 11:23:26;;;;;;;66.80;36.43;;;2.70;1.00;;;;;;6235358;28;20243;-52
2022/12/04 11:26:32;;;;;;;71.53;37.63;;;2.60;1.00;;;;;;6225702;28;20257;-52
2022/12/04 11:29:40;;;;;;;69.77;36.93;;;2.80;1.00;;;;;;6235259;28;20235;-52
2022/12/04 11:32:46;;;;;;;65.67;36.53;;;2.60;1.00;;;;;;6232607;28;20239;-52
2022/12/04 11:35:53;;;;;;;65.40;37.07;;;2.60;1.00;;;;;;6230775;28;20241;-52
2022/12/04 11:39:06;;;;;;;64.17;34.70;;;2.80;1.00;;;;;;6242206;28;20249;-53
2022/12/04 11:42:18;;;;;;;64.17;36.27;;;2.80;1.00;;;;;;6238676;28;20231;-52
2022/12/04 11:45:23;;;;;;;72.17;37.93;;;2.50;1.00;;;;;;6233091;28;20223;-53
2022/12/04 11:48:29;;;;;;;70.37;36.67;;;2.90;1.00;;;;;;6234123;28;20245;-52
2022/12/04 11:51:45;;;;;;;64.97;35.87;;;2.70;1.00;;;;;;6233829;28;20732;-52
2022/12/04 11:54:59;;;;;;;62.50;36.37;;;2.70;1.00;;;;;;6230054;28;20473;-52
2022/12/04 11:58:16;;;;;;;61.90;35.37;;;2.80;1.00;;;;;;6231070;28;20512;-53
2022/12/04 12:01:34;;;;;;;57.47;34.93;;;2.90;1.00;;;;;;6234692;28;20240;-52
2022/12/04 12:05:06;;;;;;;67.87;37.80;;;2.70;1.00;;;;;;6232176;28;20238;-53
2022/12/04 12:08:18;;;;;;;64.77;37.10;;;2.80;1.00;;;;;;6233124;28;20239;-52
2022/12/04 12:11:26;;;;;;;61.20;35.20;;;2.90;1.00;;;;;;6234799;28;20338;-52
2022/12/04 12:14:34;;;;;;;63.03;34.97;;;2.90;1.00;;;;;;6227760;28;20235;-51
2022/12/04 12:17:45;;;;;;;66.37;35.63;;;2.80;1.00;;;;;;6229182;28;20242;-53
2022/12/04 12:20:58;;;;;;;65.13;36.70;;;2.80;1.00;;;;;;6236134;28;20766;-54
2022/12/04 12:24:12;;;;;;;61.10;35.53;;;3.00;1.00;;;;;;6234161;28;20720;-53
2022/12/04 12:27:39;;;;;;;65.50;35.20;;;3.00;1.00;;;;;;6239780;28;20239;-52
2022/12/04 12:31:00;;;;;;;59.07;34.70;;;2.80;1.00;;;;;;6216273;28;20234;-51
2022/12/04 12:34:11;;;;;;;68.67;37.17;;;2.80;1.00;;;;;;6232293;28;20342;-53
2022/12/04 12:37:25;;;;;;;71.23;35.77;;;2.90;1.00;;;;;;6215635;28;20755;-53
2022/12/04 12:40:33;;;;;;;58.33;34.20;;;2.80;1.00;;;;;;6218365;28;20527;-52
2022/12/04 12:43:38;;;;;;;66.83;37.97;;;2.90;1.00;;;;;;6214245;28;20234;-52
2022/12/04 12:46:48;;;;;;;67.40;36.27;;;2.90;1.00;;;;;;6213560;28;20253;-52
2022/12/04 12:49:59;;;;;;;63.37;36.20;;;2.60;1.00;;;;;;6210540;28;20238;-53
2022/12/04 12:53:10;;;;;;;60.43;35.27;;;3.00;1.00;;;;;;6213556;28;20933;-51
2022/12/04 12:56:13;;;;;;;60.30;35.23;;;2.90;1.00;;;;;;6217192;28;20234;-53
2022/12/04 12:59:20;;;;;;;63.43;36.47;;;3.00;1.00;;;;;;6218057;28;20245;-56
2022/12/04 13:02:29;;;;;;;66.93;36.63;;;2.90;1.00;;;;;;6218547;28;20235;-57
2022/12/04 13:05:37;;;;;;;63.23;35.80;;;3.00;1.00;;;;;;6220338;28;20578;-53
2022/12/04 13:08:51;;;;;;;69.37;38.30;;;2.70;1.00;;;;;;6215765;28;20243;-52
2022/12/04 13:11:59;;;;;;;56.77;34.87;;;2.70;1.00;;;;;;6215261;28;20252;-53
2022/12/04 13:15:02;;;;;;;65.07;35.80;;;2.80;1.00;;;;;;6218385;28;20244;-52
2022/12/04 13:18:08;;;;;;;66.27;36.73;;;2.90;1.00;;;;;;6213090;28;20708;-54
2022/12/04 13:21:28;;;;;;;64.20;35.20;;;3.00;1.00;;;;;;6209271;28;20251;-52
2022/12/04 13:24:48;;;;;;;69.57;36.80;;;2.70;1.00;;;;;;6217800;28;20242;-52
2022/12/04 13:28:03;;;;;;;64.73;38.03;;;2.80;1.00;;;;;;6214718;28;20239;-53
2022/12/04 13:31:20;;;;;;;70.90;35.90;;;2.80;1.00;;;;;;6217028;28;20231;-52
2022/12/04 13:34:43;;;;;;;58.70;35.30;;;2.80;1.00;;;;;;6242579;28;20231;-54
2022/12/04 13:38:03;;;;;;;70.80;36.73;;;3.00;1.00;;;;;;6240653;28;20489;-52
2022/12/04 13:41:11;;;;;;;65.67;35.83;;;3.00;1.00;;;;;;6236530;28;20234;-52
2022/12/04 13:44:20;;;;;;;73.80;37.37;;;3.00;1.00;;;;;;6238068;28;20231;-52
2022/12/04 13:47:28;;;;;;;65.93;36.07;;;2.90;1.00;;;;;;6232245;28;20239;-52
2022/12/04 13:50:32;;;;;;;75.13;38.33;;;3.00;1.00;;;;;;6232620;28;20299;-53
2022/12/04 13:53:39;;;;;;;70.70;38.27;;;3.20;1.00;;;;;;6213215;28;20231;-51
2022/12/04 13:56:45;;;;;;;71.17;38.10;;;3.00;1.00;;;;;;6205448;28;20250;-53
2022/12/04 13:59:49;;;;;;;78.23;39.03;;;3.00;1.00;;;;;;6199755;28;20766;-52
2022/12/04 14:02:54;;;;;;;67.60;36.73;;;3.20;1.00;;;;;;6210895;28;20787;-52
2022/12/04 14:05:59;;;;;;;71.17;36.97;;;2.70;1.00;;;;;;6214958;28;20231;-52
2022/12/04 14:09:04;;;;;;;70.50;37.47;;;2.90;1.00;;;;;;6216374;28;20243;-52
2022/12/04 14:12:13;;;;;;;82.57;38.53;;;2.90;1.00;;;;;;6215373;28;20254;-52
2022/12/04 14:15:22;;;;;;;82.57;40.20;;;3.00;1.00;;;;;;6228771;28;20243;-52
2022/12/04 14:18:29;;;;;;;67.97;37.80;;;3.10;1.00;;;;;;6235217;28;20471;-51
2022/12/04 14:21:40;;;;;;;78.60;38.80;;;2.90;1.00;;;;;;6254620;28;20238;-52
2022/12/04 14:24:43;;;;;;;74.70;37.27;;;3.00;1.00;;;;;;6232316;28;20253;-53
2022/12/04 14:27:50;;;;;;;74.77;38.23;;;3.10;1.00;;;;;;6227605;28;20234;-52
2022/12/04 14:31:13;;;;;;;82.03;42.07;;;2.80;1.00;;;;;;6239813;28;20241;-62
2022/12/04 14:34:22;;;;;;;79.73;40.23;;;2.90;1.00;;;;;;6229026;28;20250;-52
2022/12/04 14:37:29;;;;;;;81.67;40.00;;;2.80;1.00;;;;;;6228230;28;20397;-52
2022/12/04 14:40:37;;;;;;;82.00;42.17;;;2.60;1.00;;;;;;6239796;28;20696;-53
2022/12/04 14:43:47;;;;;;;78.50;40.30;;;2.90;1.00;;;;;;6218744;28;20227;-51
2022/12/04 14:46:52;;;;;;;84.73;40.07;;;2.90;1.00;;;;;;6207933;28;20427;-52
2022/12/04 14:50:09;;;;;;;86.00;42.03;;;2.90;1.00;;;;;;6207613;28;20262;-51
2022/12/04 14:53:18;;;;;;;82.67;40.67;;;2.80;1.00;;;;;;6220801;28;20231;-52
2022/12/04 14:56:32;;;;;;;85.90;40.77;;;2.80;1.00;;;;;;6219140;28;20242;-51
2022/12/04 14:59:44;;;;;;;90.27;42.30;;;2.90;1.00;;;;;;6206118;28;20709;-53
2022/12/04 15:02:49;;;;;;;88.17;41.17;;;2.80;1.00;;;;;;6210785;28;20830;-52
2022/12/04 15:06:02;;;;;;;92.83;42.03;;;3.10;1.00;;;;;;6217410;28;20739;-52
2022/12/04 15:12:41;;;;;;;85.33;41.00;;;2.90;1.00;;;;;;6208338;28;20616;-51
2022/12/04 15:15:46;;;;;;;89.37;42.53;;;2.80;1.00;;;;;;6212552;28;20242;-52
2022/12/04 15:18:56;;;;;;;87.23;40.37;;;2.90;1.00;;;;;;6210083;28;20265;-54
2022/12/04 15:21:59;;;;;;;98.77;41.67;;;2.80;1.00;;;;;;6202403;28;20235;-54
2022/12/04 15:25:04;;;;;;;90.10;42.93;;;2.60;1.00;;;;;;6225841;28;20227;-53
2022/12/04 15:28:13;;;;;;;94.73;42.03;;;2.90;1.00;;;;;;6239682;28;20257;-52
2022/12/04 15:31:21;;;;;;;90.63;42.27;;;2.80;1.00;;;;;;6235800;28;20715;-55
2022/12/04 15:34:31;;;;;;;97.20;42.20;;;2.80;1.00;;;;;;6226292;28;20277;-53
2022/12/04 15:37:34;;;;;;;87.37;41.77;;;2.70;1.00;;;;;;6225413;28;20737;-52
2022/12/04 15:40:37;;;;;;;101.83;43.47;;;3.00;1.00;;;;;;6233652;28;20226;-52
2022/12/04 15:43:42;;;;;;;83.93;40.93;;;2.80;1.00;;;;;;6236898;28;20735;-52
2022/12/04 15:46:47;;;;;;;97.73;43.70;;;2.60;1.00;;;;;;6248802;28;20257;-53
2022/12/04 15:49:51;;;;;;;98.43;44.73;;;2.80;1.00;;;;;;6237724;28;20234;-53
2022/12/04 15:53:00;;;;;;;97.83;42.30;;;2.70;1.00;;;;;;6241360;28;20235;-52
2022/12/04 15:56:06;;;;;;;103.53;46.10;;;2.80;1.00;;;;;;6239117;28;20254;-52
2022/12/04 15:59:16;;;;;;;112.33;46.47;;;3.10;1.00;;;;;;6238063;28;20226;-52
2022/12/04 16:02:28;;;;;;;103.43;42.60;;;2.70;1.00;;;;;;6243887;28;20386;-52
2022/12/04 16:05:35;;;;;;;116.40;47.03;;;2.70;1.00;;;;;;6212607;28;20231;-53
2022/12/04 16:08:40;;;;;;;111.10;45.53;;;2.60;1.00;;;;;;6233403;28;20230;-53
2022/12/04 16:11:43;;;;;;;107.07;45.73;;;2.80;1.00;;;;;;6237036;28;20333;-53
2022/12/04 16:14:46;;;;;;;112.33;46.80;;;2.60;1.00;;;;;;6226809;28;20689;-53
2022/12/04 16:17:51;;;;;;;100.17;44.40;;;2.90;1.00;;;;;;6232123;28;20239;-55
2022/12/04 16:20:54;;;;;;;122.03;49.80;;;2.60;1.00;;;;;;6228153;28;20243;-52
2022/12/04 16:24:01;;;;;;;135.83;50.30;;;2.80;1.00;;;;;;6205771;28;20664;-54
2022/12/04 16:27:11;;;;;;;110.83;45.77;;;2.70;1.00;;;;;;6220965;28;20247;-55
2022/12/04 16:30:14;;;;;;;114.20;48.00;;;2.90;1.00;;;;;;6224314;28;20237;-53